Meteoliendo - El tiempo en Liendo - Informes METAR de Aeropuertos cercanos

Informes METAR de Aeropuertos cercanos

 

LEXJ - Santander
Actualización: 15/12/2017 03:00
Cubierto
Cubierto
 Viento del O
Viento: O 31 km/h
Temperatura: 13°C
Rocío: 6°C
Humedad: 63%
Barómetro: 1010 hPa
Clouds: Cubierto
Visibility: 8 km
Cloud details: Cubierto 2012 m
2017/12/15 02:00 LEXJ 150200Z AUTO 26017KT 8000 OVC066 13/06 Q1010
LEAS - Asturias/Aviles
Actualización: 15/12/2017 03:00
Haze, Cubierto
Haze, Cubierto
 Viento del O
Viento: O 33 km/h
Temperatura: 12°C
Rocío: 4°C
Humedad: 58%
Barómetro: 1012 hPa
Resumen: Haze
Clouds: Cubierto
Visibility: 4 km
Cloud details: Cubierto 1829 m
2017/12/15 02:00 LEAS 150200Z AUTO 27018KT 240V310 4000 HZ OVC060 12/04 Q1012
LEBB - Bilbao
Actualización: 15/12/2017 03:00
Muy nuboso
Muy nuboso
 Viento del O
Viento: O 17 km/h, Racha: 41 km/h
Temperatura: 13°C
Rocío: 4°C
Humedad: 55%
Barómetro: 1010 hPa
Clouds: Muy nuboso
Visibility: 10 km
Cloud details: Parcialmente nuboso 1798 m
Muy nuboso 2134 m
2017/12/15 02:00 LEBB 150200Z AUTO 28009G22KT 240V320 9999 SCT059 BKN070 13/04 Q1010
 
LEBG - Burgos/Villafría
Actualización: 15/12/2017 03:00
Despejado
Despejado
 Viento del SSO
Viento: SSO 17 km/h
Temperatura: 3°C
Wind Chill: -1°C
Rocío: 0°C
Humedad: 81%
Barómetro: 1012 hPa
Clouds: Despejado
Visibility: 10 km
2017/12/15 02:00 LEBG 150200Z AUTO 20009KT 9999 NCD 03/00 Q1012
LELO - Logroño
Actualización: 14/12/2017 23:00
NOT Current
Mist, Cubierto
Mist, Cubierto
 Viento del varies
Viento: varies 2 km/h
Temperatura: 9°C
Rocío: 8°C
Humedad: 94%
Barómetro: 1011 hPa
Resumen: Mist
Clouds: Cubierto
Visibility: 4 km
Cloud details: Cubierto 366 m
2017/12/14 22:00 LELO 142200Z VRB01KT 4000 BR OVC012 09/08 Q1011
LEPP - Pamplona
Actualización: 15/12/2017 03:00
Despejado
Despejado
 Viento del OSO
Viento: OSO 6 km/h
Temperatura: 8°C
Rocío: 3°C
Humedad: 71%
Barómetro: 1010 hPa
Resumen: Despejado
Visibility: greater than 10 km
2017/12/15 02:00 LEPP 150200Z AUTO 25003KT 190V340 CAVOK 08/03 Q1010
 
LESO - San Sebastián
Actualización: 15/12/2017 03:00
Parcialmente nuboso
Parcialmente nuboso
 Viento del SO
Viento: SO 20 km/h
Temperatura: 13°C
Rocío: 5°C
Humedad: 59%
Barómetro: 1009 hPa
Clouds: Parcialmente nuboso
Visibility: 10 km
Cloud details: Few Clouds 1524 m
Parcialmente nuboso 2012 m
2017/12/15 02:00 LESO 150200Z AUTO 23011KT 200V280 9999 FEW050 SCT066 13/05 Q1009
LEST - Santiago de Compostela
Actualización: 15/12/2017 03:00
Lluvia débil, Cubierto
Lluvia débil, Cubierto
 Viento del O
Viento: O 6 km/h
Temperatura: 9°C
Rocío: 9°C
Humedad: 100%
Barómetro: 1016 hPa
Resumen: Lluvia débil
Clouds: Cubierto
Visibility: 5 km
Cloud details: Parcialmente nuboso 61 m
Muy nuboso 274 m
Cubierto 610 m
2017/12/15 02:00 LEST 150200Z 28003KT 240V320 4500 -RA SCT002 BKN009 OVC020 09/09 Q1016 NOSIG
LEVT - Vitoria
Actualización: 15/12/2017 03:00
Few Clouds
Few Clouds
 Viento del O
Viento: O 9 km/h
Temperatura: 7°C
Wind Chill: 6°C
Rocío: 1°C
Humedad: 66%
Barómetro: 1010 hPa
Clouds: Few Clouds
Visibility: 10 km
Cloud details: Few Clouds 1524 m
2017/12/15 02:00 LEVT 150200Z 27005KT 220V290 9999 FEW050 07/01 Q1010